sensor_id;sensor_type;location;lat;lon;timestamp;P1;durP1;ratioP1;P2;durP2;ratioP2
73023;SDS011;61199;47.526;8.538;2023-02-15T00:01:46;38.20;;;17.13;;
73023;SDS011;61199;47.526;8.538;2023-02-15T00:04:15;38.73;;;19.40;;
73023;SDS011;61199;47.526;8.538;2023-02-15T00:06:43;34.70;;;18.40;;
73023;SDS011;61199;47.526;8.538;2023-02-15T00:09:09;35.00;;;17.10;;
73023;SDS011;61199;47.526;8.538;2023-02-15T00:11:37;35.13;;;16.90;;
73023;SDS011;61199;47.526;8.538;2023-02-15T00:14:18;50.77;;;18.67;;
73023;SDS011;61199;47.526;8.538;2023-02-15T00:16:46;32.77;;;16.40;;
73023;SDS011;61199;47.526;8.538;2023-02-15T00:19:15;40.23;;;17.77;;
73023;SDS011;61199;47.526;8.538;2023-02-15T00:21:43;38.07;;;18.50;;
73023;SDS011;61199;47.526;8.538;2023-02-15T00:24:10;38.23;;;17.10;;
73023;SDS011;61199;47.526;8.538;2023-02-15T00:26:39;32.77;;;17.00;;
73023;SDS011;61199;47.526;8.538;2023-02-15T00:29:07;31.27;;;16.23;;
73023;SDS011;61199;47.526;8.538;2023-02-15T00:31:35;31.70;;;16.23;;
73023;SDS011;61199;47.526;8.538;2023-02-15T00:34:05;34.90;;;16.90;;
73023;SDS011;61199;47.526;8.538;2023-02-15T00:36:40;32.17;;;17.00;;
73023;SDS011;61199;47.526;8.538;2023-02-15T00:39:06;33.63;;;16.87;;
73023;SDS011;61199;47.526;8.538;2023-02-15T00:41:33;38.30;;;16.50;;
73023;SDS011;61199;47.526;8.538;2023-02-15T00:43:59;30.03;;;15.33;;
73023;SDS011;61199;47.526;8.538;2023-02-15T00:46:26;37.97;;;17.03;;
73023;SDS011;61199;47.526;8.538;2023-02-15T00:48:54;31.17;;;16.40;;
73023;SDS011;61199;47.526;8.538;2023-02-15T00:51:20;32.80;;;16.07;;
73023;SDS011;61199;47.526;8.538;2023-02-15T00:53:46;28.27;;;14.90;;
73023;SDS011;61199;47.526;8.538;2023-02-15T00:56:13;29.90;;;15.87;;
73023;SDS011;61199;47.526;8.538;2023-02-15T00:58:40;46.70;;;17.13;;
73023;SDS011;61199;47.526;8.538;2023-02-15T01:01:11;30.40;;;15.03;;
73023;SDS011;61199;47.526;8.538;2023-02-15T01:03:42;29.47;;;14.63;;
73023;SDS011;61199;47.526;8.538;2023-02-15T01:06:10;27.40;;;14.90;;
73023;SDS011;61199;47.526;8.538;2023-02-15T01:08:37;37.83;;;15.53;;
73023;SDS011;61199;47.526;8.538;2023-02-15T01:11:04;28.47;;;14.70;;
73023;SDS011;61199;47.526;8.538;2023-02-15T01:13:33;33.87;;;16.20;;
73023;SDS011;61199;47.526;8.538;2023-02-15T01:16:00;30.23;;;15.27;;
73023;SDS011;61199;47.526;8.538;2023-02-15T01:18:28;29.83;;;16.60;;
73023;SDS011;61199;47.526;8.538;2023-02-15T01:20:56;31.17;;;15.77;;
73023;SDS011;61199;47.526;8.538;2023-02-15T01:23:23;33.57;;;15.07;;
73023;SDS011;61199;47.526;8.538;2023-02-15T01:25:49;31.43;;;15.70;;
73023;SDS011;61199;47.526;8.538;2023-02-15T01:28:16;29.40;;;15.13;;
73023;SDS011;61199;47.526;8.538;2023-02-15T01:30:42;29.80;;;14.40;;
73023;SDS011;61199;47.526;8.538;2023-02-15T01:33:09;26.83;;;14.80;;
73023;SDS011;61199;47.526;8.538;2023-02-15T01:35:44;26.60;;;13.80;;
73023;SDS011;61199;47.526;8.538;2023-02-15T01:38:12;24.50;;;12.63;;
73023;SDS011;61199;47.526;8.538;2023-02-15T01:40:39;37.67;;;14.57;;
73023;SDS011;61199;47.526;8.538;2023-02-15T01:43:09;30.17;;;14.43;;
73023;SDS011;61199;47.526;8.538;2023-02-15T01:45:37;26.87;;;14.70;;
73023;SDS011;61199;47.526;8.538;2023-02-15T01:50:48;31.03;;;15.80;;
73023;SDS011;61199;47.526;8.538;2023-02-15T01:53:21;31.60;;;15.17;;
73023;SDS011;61199;47.526;8.538;2023-02-15T01:55:57;24.63;;;13.47;;
73023;SDS011;61199;47.526;8.538;2023-02-15T01:58:32;26.77;;;13.70;;
73023;SDS011;61199;47.526;8.538;2023-02-15T02:01:01;44.10;;;16.00;;
73023;SDS011;61199;47.526;8.538;2023-02-15T02:03:39;40.73;;;16.03;;
73023;SDS011;61199;47.526;8.538;2023-02-15T02:06:16;66.07;;;14.80;;
73023;SDS011;61199;47.526;8.538;2023-02-15T02:08:43;28.53;;;14.93;;
73023;SDS011;61199;47.526;8.538;2023-02-15T02:11:13;27.53;;;14.67;;
73023;SDS011;61199;47.526;8.538;2023-02-15T02:13:40;29.87;;;14.73;;
73023;SDS011;61199;47.526;8.538;2023-02-15T02:16:18;41.90;;;14.90;;
73023;SDS011;61199;47.526;8.538;2023-02-15T02:18:58;35.37;;;13.77;;
73023;SDS011;61199;47.526;8.538;2023-02-15T02:29:48;65.33;;;16.80;;
73023;SDS011;61199;47.526;8.538;2023-02-15T02:32:34;30.17;;;14.57;;
73023;SDS011;61199;47.526;8.538;2023-02-15T02:41:07;27.67;;;14.03;;
73023;SDS011;61199;47.526;8.538;2023-02-15T02:43:43;38.23;;;14.63;;
73023;SDS011;61199;47.526;8.538;2023-02-15T02:46:21;91.47;;;16.10;;
73023;SDS011;61199;47.526;8.538;2023-02-15T02:48:54;28.33;;;13.80;;
73023;SDS011;61199;47.526;8.538;2023-02-15T02:51:21;29.40;;;13.20;;
73023;SDS011;61199;47.526;8.538;2023-02-15T02:53:49;31.90;;;14.00;;
73023;SDS011;61199;47.526;8.538;2023-02-15T02:59:30;29.10;;;14.40;;
73023;SDS011;61199;47.526;8.538;2023-02-15T03:02:03;32.27;;;14.00;;
73023;SDS011;61199;47.526;8.538;2023-02-15T03:04:39;28.40;;;14.40;;
73023;SDS011;61199;47.526;8.538;2023-02-15T03:07:10;76.17;;;15.10;;
73023;SDS011;61199;47.526;8.538;2023-02-15T03:09:41;43.17;;;13.83;;
73023;SDS011;61199;47.526;8.538;2023-02-15T03:12:12;27.50;;;14.47;;
73023;SDS011;61199;47.526;8.538;2023-02-15T03:14:44;34.93;;;14.20;;
73023;SDS011;61199;47.526;8.538;2023-02-15T03:17:14;30.33;;;14.27;;
73023;SDS011;61199;47.526;8.538;2023-02-15T03:19:45;26.40;;;14.50;;
73023;SDS011;61199;47.526;8.538;2023-02-15T03:22:15;38.30;;;14.40;;
73023;SDS011;61199;47.526;8.538;2023-02-15T03:24:51;145.23;;;16.70;;
73023;SDS011;61199;47.526;8.538;2023-02-15T03:27:24;30.03;;;13.17;;
73023;SDS011;61199;47.526;8.538;2023-02-15T03:29:57;26.97;;;14.50;;
73023;SDS011;61199;47.526;8.538;2023-02-15T03:32:28;32.93;;;14.37;;
73023;SDS011;61199;47.526;8.538;2023-02-15T03:34:57;28.07;;;13.70;;
73023;SDS011;61199;47.526;8.538;2023-02-15T03:37:32;29.77;;;14.10;;
73023;SDS011;61199;47.526;8.538;2023-02-15T03:40:00;26.03;;;13.10;;
73023;SDS011;61199;47.526;8.538;2023-02-15T03:42:54;28.70;;;13.30;;
73023;SDS011;61199;47.526;8.538;2023-02-15T03:45:29;25.80;;;13.07;;
73023;SDS011;61199;47.526;8.538;2023-02-15T03:47:58;25.50;;;14.57;;
73023;SDS011;61199;47.526;8.538;2023-02-15T03:50:27;24.07;;;12.53;;
73023;SDS011;61199;47.526;8.538;2023-02-15T03:53:16;26.83;;;13.13;;
73023;SDS011;61199;47.526;8.538;2023-02-15T03:55:47;21.37;;;11.93;;
73023;SDS011;61199;47.526;8.538;2023-02-15T03:58:15;23.67;;;12.10;;
73023;SDS011;61199;47.526;8.538;2023-02-15T04:01:03;28.80;;;13.43;;
73023;SDS011;61199;47.526;8.538;2023-02-15T04:03:57;35.43;;;13.40;;
73023;SDS011;61199;47.526;8.538;2023-02-15T04:06:28;28.03;;;13.20;;
73023;SDS011;61199;47.526;8.538;2023-02-15T04:08:54;24.93;;;14.30;;
73023;SDS011;61199;47.526;8.538;2023-02-15T04:11:39;25.67;;;13.60;;
73023;SDS011;61199;47.526;8.538;2023-02-15T04:14:05;34.90;;;14.83;;
73023;SDS011;61199;47.526;8.538;2023-02-15T04:16:50;29.90;;;14.70;;
73023;SDS011;61199;47.526;8.538;2023-02-15T04:19:17;33.63;;;14.10;;
73023;SDS011;61199;47.526;8.538;2023-02-15T04:22:02;28.07;;;14.43;;
73023;SDS011;61199;47.526;8.538;2023-02-15T04:24:47;36.40;;;13.87;;
73023;SDS011;61199;47.526;8.538;2023-02-15T04:27:32;27.57;;;13.97;;
73023;SDS011;61199;47.526;8.538;2023-02-15T04:29:59;35.70;;;14.30;;
73023;SDS011;61199;47.526;8.538;2023-02-15T04:32:25;27.67;;;14.10;;
73023;SDS011;61199;47.526;8.538;2023-02-15T04:34:52;28.83;;;15.00;;
73023;SDS011;61199;47.526;8.538;2023-02-15T04:37:19;25.07;;;13.03;;
73023;SDS011;61199;47.526;8.538;2023-02-15T04:39:45;26.80;;;13.53;;
73023;SDS011;61199;47.526;8.538;2023-02-15T04:42:12;35.97;;;13.63;;
73023;SDS011;61199;47.526;8.538;2023-02-15T04:44:38;24.63;;;13.13;;
73023;SDS011;61199;47.526;8.538;2023-02-15T04:47:05;37.10;;;14.37;;
73023;SDS011;61199;47.526;8.538;2023-02-15T04:49:31;45.80;;;14.30;;
73023;SDS011;61199;47.526;8.538;2023-02-15T04:51:57;27.13;;;13.57;;
73023;SDS011;61199;47.526;8.538;2023-02-15T04:54:24;26.50;;;13.27;;
73023;SDS011;61199;47.526;8.538;2023-02-15T04:56:50;25.37;;;13.50;;
73023;SDS011;61199;47.526;8.538;2023-02-15T04:59:16;28.93;;;14.17;;
73023;SDS011;61199;47.526;8.538;2023-02-15T05:01:43;29.27;;;14.33;;
73023;SDS011;61199;47.526;8.538;2023-02-15T05:04:10;27.57;;;14.20;;
73023;SDS011;61199;47.526;8.538;2023-02-15T05:06:36;52.67;;;14.90;;
73023;SDS011;61199;47.526;8.538;2023-02-15T05:09:02;29.33;;;15.63;;
73023;SDS011;61199;47.526;8.538;2023-02-15T05:11:29;37.20;;;14.43;;
73023;SDS011;61199;47.526;8.538;2023-02-15T05:13:55;31.13;;;14.30;;
73023;SDS011;61199;47.526;8.538;2023-02-15T05:16:21;31.23;;;13.50;;
73023;SDS011;61199;47.526;8.538;2023-02-15T05:18:48;30.90;;;16.13;;
73023;SDS011;61199;47.526;8.538;2023-02-15T05:21:14;31.10;;;15.00;;
73023;SDS011;61199;47.526;8.538;2023-02-15T05:23:42;43.30;;;16.27;;
73023;SDS011;61199;47.526;8.538;2023-02-15T05:26:10;30.17;;;14.97;;
73023;SDS011;61199;47.526;8.538;2023-02-15T05:28:57;28.03;;;13.77;;
73023;SDS011;61199;47.526;8.538;2023-02-15T05:31:23;27.13;;;14.47;;
73023;SDS011;61199;47.526;8.538;2023-02-15T05:33:50;33.57;;;13.30;;
73023;SDS011;61199;47.526;8.538;2023-02-15T05:36:16;25.13;;;12.70;;
73023;SDS011;61199;47.526;8.538;2023-02-15T05:38:43;28.63;;;12.87;;
73023;SDS011;61199;47.526;8.538;2023-02-15T05:41:10;19.47;;;12.17;;
73023;SDS011;61199;47.526;8.538;2023-02-15T05:43:37;26.77;;;14.30;;
73023;SDS011;61199;47.526;8.538;2023-02-15T05:46:05;36.23;;;14.73;;
73023;SDS011;61199;47.526;8.538;2023-02-15T05:48:32;24.97;;;13.77;;
73023;SDS011;61199;47.526;8.538;2023-02-15T05:51:06;25.87;;;14.47;;
73023;SDS011;61199;47.526;8.538;2023-02-15T05:53:36;31.27;;;15.90;;
73023;SDS011;61199;47.526;8.538;2023-02-15T05:56:03;46.43;;;14.97;;
73023;SDS011;61199;47.526;8.538;2023-02-15T05:58:32;30.23;;;13.83;;
73023;SDS011;61199;47.526;8.538;2023-02-15T06:01:34;26.33;;;13.90;;
73023;SDS011;61199;47.526;8.538;2023-02-15T06:03:53;35.63;;;15.07;;
73023;SDS011;61199;47.526;8.538;2023-02-15T06:06:21;25.33;;;14.10;;
73023;SDS011;61199;47.526;8.538;2023-02-15T06:08:48;36.70;;;14.70;;
73023;SDS011;61199;47.526;8.538;2023-02-15T06:11:14;36.40;;;14.80;;
73023;SDS011;61199;47.526;8.538;2023-02-15T06:13:41;24.33;;;13.50;;
73023;SDS011;61199;47.526;8.538;2023-02-15T06:16:07;27.27;;;14.33;;
73023;SDS011;61199;47.526;8.538;2023-02-15T06:18:34;25.57;;;13.60;;
73023;SDS011;61199;47.526;8.538;2023-02-15T06:21:01;32.50;;;15.90;;
73023;SDS011;61199;47.526;8.538;2023-02-15T06:23:27;29.97;;;13.20;;
73023;SDS011;61199;47.526;8.538;2023-02-15T06:25:54;30.33;;;14.33;;
73023;SDS011;61199;47.526;8.538;2023-02-15T06:28:20;30.80;;;14.97;;
73023;SDS011;61199;47.526;8.538;2023-02-15T06:30:47;28.97;;;15.00;;
73023;SDS011;61199;47.526;8.538;2023-02-15T06:33:13;29.63;;;15.70;;
73023;SDS011;61199;47.526;8.538;2023-02-15T06:35:40;38.90;;;15.47;;
73023;SDS011;61199;47.526;8.538;2023-02-15T06:38:06;30.77;;;15.50;;
73023;SDS011;61199;47.526;8.538;2023-02-15T06:40:32;32.27;;;17.17;;
73023;SDS011;61199;47.526;8.538;2023-02-15T06:42:59;27.13;;;13.60;;
73023;SDS011;61199;47.526;8.538;2023-02-15T06:45:25;35.87;;;18.23;;
73023;SDS011;61199;47.526;8.538;2023-02-15T06:47:52;59.57;;;28.00;;
73023;SDS011;61199;47.526;8.538;2023-02-15T06:50:18;33.77;;;16.90;;
73023;SDS011;61199;47.526;8.538;2023-02-15T06:52:44;32.80;;;17.87;;
73023;SDS011;61199;47.526;8.538;2023-02-15T06:55:11;33.93;;;16.30;;
73023;SDS011;61199;47.526;8.538;2023-02-15T06:57:37;35.03;;;15.77;;
73023;SDS011;61199;47.526;8.538;2023-02-15T07:00:04;34.63;;;16.40;;
73023;SDS011;61199;47.526;8.538;2023-02-15T07:02:31;33.00;;;17.27;;
73023;SDS011;61199;47.526;8.538;2023-02-15T07:04:58;32.20;;;17.70;;
73023;SDS011;61199;47.526;8.538;2023-02-15T07:07:24;30.93;;;15.57;;
73023;SDS011;61199;47.526;8.538;2023-02-15T07:09:51;30.03;;;14.80;;
73023;SDS011;61199;47.526;8.538;2023-02-15T07:12:17;34.40;;;16.90;;
73023;SDS011;61199;47.526;8.538;2023-02-15T07:15:02;37.00;;;15.80;;
73023;SDS011;61199;47.526;8.538;2023-02-15T07:17:30;29.73;;;15.23;;
73023;SDS011;61199;47.526;8.538;2023-02-15T07:20:09;29.27;;;14.30;;
73023;SDS011;61199;47.526;8.538;2023-02-15T07:22:37;33.93;;;15.60;;
73023;SDS011;61199;47.526;8.538;2023-02-15T07:25:04;32.10;;;14.50;;
73023;SDS011;61199;47.526;8.538;2023-02-15T07:27:33;28.07;;;15.70;;
73023;SDS011;61199;47.526;8.538;2023-02-15T07:29:59;26.73;;;14.27;;
73023;SDS011;61199;47.526;8.538;2023-02-15T07:32:27;28.60;;;14.70;;
73023;SDS011;61199;47.526;8.538;2023-02-15T07:34:58;28.20;;;15.40;;
73023;SDS011;61199;47.526;8.538;2023-02-15T07:37:25;30.90;;;15.10;;
73023;SDS011;61199;47.526;8.538;2023-02-15T07:39:52;30.30;;;16.00;;
73023;SDS011;61199;47.526;8.538;2023-02-15T07:42:18;33.60;;;16.53;;
73023;SDS011;61199;47.526;8.538;2023-02-15T07:44:45;29.70;;;14.77;;
73023;SDS011;61199;47.526;8.538;2023-02-15T07:47:12;52.00;;;17.60;;
73023;SDS011;61199;47.526;8.538;2023-02-15T07:49:39;35.83;;;16.77;;
73023;SDS011;61199;47.526;8.538;2023-02-15T07:52:05;32.30;;;15.40;;
73023;SDS011;61199;47.526;8.538;2023-02-15T07:54:31;30.23;;;14.80;;
73023;SDS011;61199;47.526;8.538;2023-02-15T07:56:58;29.40;;;15.67;;
73023;SDS011;61199;47.526;8.538;2023-02-15T07:59:24;31.33;;;15.53;;
73023;SDS011;61199;47.526;8.538;2023-02-15T08:01:50;28.70;;;14.97;;
73023;SDS011;61199;47.526;8.538;2023-02-15T08:04:18;32.27;;;16.23;;
73023;SDS011;61199;47.526;8.538;2023-02-15T08:06:45;29.30;;;14.50;;
73023;SDS011;61199;47.526;8.538;2023-02-15T08:09:11;26.67;;;14.70;;
73023;SDS011;61199;47.526;8.538;2023-02-15T08:11:38;38.37;;;15.43;;
73023;SDS011;61199;47.526;8.538;2023-02-15T08:14:13;28.53;;;15.00;;
73023;SDS011;61199;47.526;8.538;2023-02-15T08:16:41;31.80;;;16.00;;
73023;SDS011;61199;47.526;8.538;2023-02-15T08:21:37;31.33;;;15.80;;
73023;SDS011;61199;47.526;8.538;2023-02-15T08:24:06;66.03;;;15.70;;
73023;SDS011;61199;47.526;8.538;2023-02-15T08:26:33;35.53;;;17.73;;
73023;SDS011;61199;47.526;8.538;2023-02-15T08:29:01;57.20;;;16.80;;
73023;SDS011;61199;47.526;8.538;2023-02-15T08:31:28;44.07;;;16.73;;
73023;SDS011;61199;47.526;8.538;2023-02-15T08:33:55;31.90;;;15.57;;
73023;SDS011;61199;47.526;8.538;2023-02-15T08:36:25;33.60;;;16.10;;
73023;SDS011;61199;47.526;8.538;2023-02-15T08:38:53;30.07;;;14.80;;
73023;SDS011;61199;47.526;8.538;2023-02-15T08:41:33;35.03;;;15.80;;
73023;SDS011;61199;47.526;8.538;2023-02-15T08:44:01;40.73;;;19.53;;
73023;SDS011;61199;47.526;8.538;2023-02-15T08:46:31;32.90;;;17.20;;
73023;SDS011;61199;47.526;8.538;2023-02-15T08:48:59;33.47;;;16.67;;
73023;SDS011;61199;47.526;8.538;2023-02-15T08:51:27;31.60;;;15.50;;
73023;SDS011;61199;47.526;8.538;2023-02-15T08:53:57;34.10;;;16.97;;
73023;SDS011;61199;47.526;8.538;2023-02-15T08:56:26;33.40;;;15.87;;
73023;SDS011;61199;47.526;8.538;2023-02-15T08:58:54;33.57;;;16.77;;
73023;SDS011;61199;47.526;8.538;2023-02-15T09:01:22;31.67;;;15.80;;
73023;SDS011;61199;47.526;8.538;2023-02-15T09:03:53;33.13;;;16.83;;
73023;SDS011;61199;47.526;8.538;2023-02-15T09:06:22;31.13;;;15.47;;
73023;SDS011;61199;47.526;8.538;2023-02-15T09:08:49;30.03;;;17.10;;
73023;SDS011;61199;47.526;8.538;2023-02-15T09:11:23;37.30;;;16.53;;
73023;SDS011;61199;47.526;8.538;2023-02-15T09:13:53;33.57;;;15.97;;
73023;SDS011;61199;47.526;8.538;2023-02-15T09:16:25;34.30;;;17.37;;
73023;SDS011;61199;47.526;8.538;2023-02-15T09:18:54;33.77;;;17.73;;
73023;SDS011;61199;47.526;8.538;2023-02-15T09:21:24;31.70;;;15.83;;
73023;SDS011;61199;47.526;8.538;2023-02-15T09:23:52;36.67;;;17.60;;
73023;SDS011;61199;47.526;8.538;2023-02-15T09:26:23;39.97;;;17.60;;
73023;SDS011;61199;47.526;8.538;2023-02-15T09:28:54;34.80;;;17.20;;
73023;SDS011;61199;47.526;8.538;2023-02-15T09:31:23;35.60;;;17.33;;
73023;SDS011;61199;47.526;8.538;2023-02-15T09:33:51;41.80;;;20.00;;
73023;SDS011;61199;47.526;8.538;2023-02-15T09:36:19;37.30;;;17.47;;
73023;SDS011;61199;47.526;8.538;2023-02-15T09:38:57;34.57;;;17.57;;
73023;SDS011;61199;47.526;8.538;2023-02-15T09:41:33;34.60;;;17.10;;
73023;SDS011;61199;47.526;8.538;2023-02-15T09:44:07;38.00;;;19.20;;
73023;SDS011;61199;47.526;8.538;2023-02-15T09:55:30;35.97;;;17.90;;
73023;SDS011;61199;47.526;8.538;2023-02-15T10:06:06;32.27;;;16.97;;
73023;SDS011;61199;47.526;8.538;2023-02-15T10:25:31;39.43;;;18.37;;
73023;SDS011;61199;47.526;8.538;2023-02-15T10:31:04;38.70;;;18.43;;
73023;SDS011;61199;47.526;8.538;2023-02-15T10:33:48;38.50;;;18.87;;
73023;SDS011;61199;47.526;8.538;2023-02-15T10:36:32;38.40;;;19.43;;
73023;SDS011;61199;47.526;8.538;2023-02-15T10:42:11;40.10;;;19.83;;
73023;SDS011;61199;47.526;8.538;2023-02-15T10:44:55;35.47;;;18.60;;
73023;SDS011;61199;47.526;8.538;2023-02-15T10:55:28;39.33;;;18.77;;
73023;SDS011;61199;47.526;8.538;2023-02-15T10:58:08;36.80;;;19.10;;
73023;SDS011;61199;47.526;8.538;2023-02-15T11:03:20;40.07;;;19.07;;
73023;SDS011;61199;47.526;8.538;2023-02-15T11:06:11;40.87;;;19.07;;
73023;SDS011;61199;47.526;8.538;2023-02-15T11:08:44;42.63;;;20.40;;
73023;SDS011;61199;47.526;8.538;2023-02-15T11:11:21;35.80;;;18.60;;
73023;SDS011;61199;47.526;8.538;2023-02-15T11:13:51;37.63;;;20.07;;
73023;SDS011;61199;47.526;8.538;2023-02-15T11:16:24;39.57;;;20.10;;
73023;SDS011;61199;47.526;8.538;2023-02-15T11:18:56;38.10;;;18.07;;
73023;SDS011;61199;47.526;8.538;2023-02-15T11:21:27;39.07;;;19.00;;
73023;SDS011;61199;47.526;8.538;2023-02-15T11:24:12;38.53;;;19.77;;
73023;SDS011;61199;47.526;8.538;2023-02-15T11:26:43;39.20;;;20.17;;
73023;SDS011;61199;47.526;8.538;2023-02-15T11:32:01;37.93;;;18.87;;
73023;SDS011;61199;47.526;8.538;2023-02-15T11:34:53;36.70;;;18.80;;
73023;SDS011;61199;47.526;8.538;2023-02-15T11:37:27;34.60;;;17.77;;
73023;SDS011;61199;47.526;8.538;2023-02-15T11:40:00;35.90;;;18.17;;
73023;SDS011;61199;47.526;8.538;2023-02-15T11:42:29;33.03;;;17.83;;
73023;SDS011;61199;47.526;8.538;2023-02-15T11:47:42;37.70;;;18.40;;
73023;SDS011;61199;47.526;8.538;2023-02-15T11:50:15;34.70;;;18.77;;
73023;SDS011;61199;47.526;8.538;2023-02-15T11:52:52;33.53;;;17.97;;
73023;SDS011;61199;47.526;8.538;2023-02-15T11:55:22;34.33;;;19.63;;
73023;SDS011;61199;47.526;8.538;2023-02-15T11:57:52;35.83;;;18.60;;
73023;SDS011;61199;47.526;8.538;2023-02-15T12:00:43;37.53;;;19.60;;
73023;SDS011;61199;47.526;8.538;2023-02-15T12:03:14;31.90;;;17.60;;
73023;SDS011;61199;47.526;8.538;2023-02-15T12:05:47;40.50;;;19.53;;
73023;SDS011;61199;47.526;8.538;2023-02-15T12:08:20;38.30;;;20.80;;
73023;SDS011;61199;47.526;8.538;2023-02-15T12:11:06;40.43;;;20.93;;
73023;SDS011;61199;47.526;8.538;2023-02-15T12:13:53;34.83;;;18.50;;
73023;SDS011;61199;47.526;8.538;2023-02-15T12:16:22;38.73;;;20.50;;
73023;SDS011;61199;47.526;8.538;2023-02-15T12:18:49;37.20;;;18.93;;
73023;SDS011;61199;47.526;8.538;2023-02-15T12:21:29;34.13;;;18.67;;
73023;SDS011;61199;47.526;8.538;2023-02-15T12:24:03;39.10;;;19.27;;
73023;SDS011;61199;47.526;8.538;2023-02-15T12:26:39;35.80;;;18.10;;
73023;SDS011;61199;47.526;8.538;2023-02-15T12:29:07;29.73;;;15.93;;
73023;SDS011;61199;47.526;8.538;2023-02-15T12:31:46;33.30;;;17.87;;
73023;SDS011;61199;47.526;8.538;2023-02-15T12:34:21;33.20;;;17.67;;
73023;SDS011;61199;47.526;8.538;2023-02-15T12:36:55;34.27;;;18.87;;
73023;SDS011;61199;47.526;8.538;2023-02-15T12:44:21;35.10;;;19.03;;
73023;SDS011;61199;47.526;8.538;2023-02-15T12:47:02;35.07;;;17.80;;
73023;SDS011;61199;47.526;8.538;2023-02-15T12:49:41;35.30;;;18.40;;
73023;SDS011;61199;47.526;8.538;2023-02-15T12:54:46;30.50;;;17.63;;
73023;SDS011;61199;47.526;8.538;2023-02-15T12:57:31;30.73;;;16.27;;
73023;SDS011;61199;47.526;8.538;2023-02-15T13:00:00;30.50;;;16.80;;
73023;SDS011;61199;47.526;8.538;2023-02-15T13:05:13;27.87;;;15.70;;
73023;SDS011;61199;47.526;8.538;2023-02-15T13:07:46;27.53;;;16.00;;
73023;SDS011;61199;47.526;8.538;2023-02-15T13:10:29;30.60;;;16.67;;
73023;SDS011;61199;47.526;8.538;2023-02-15T13:12:59;28.77;;;16.43;;
73023;SDS011;61199;47.526;8.538;2023-02-15T13:15:31;26.93;;;15.70;;
73023;SDS011;61199;47.526;8.538;2023-02-15T13:18:01;27.13;;;15.83;;
73023;SDS011;61199;47.526;8.538;2023-02-15T13:20:30;33.40;;;15.97;;
73023;SDS011;61199;47.526;8.538;2023-02-15T13:23:04;25.50;;;15.63;;
73023;SDS011;61199;47.526;8.538;2023-02-15T13:25:41;25.13;;;15.30;;
73023;SDS011;61199;47.526;8.538;2023-02-15T13:28:16;25.57;;;14.37;;
73023;SDS011;61199;47.526;8.538;2023-02-15T13:30:46;27.03;;;15.70;;
73023;SDS011;61199;47.526;8.538;2023-02-15T13:33:19;24.50;;;14.70;;
73023;SDS011;61199;47.526;8.538;2023-02-15T13:35:57;24.00;;;15.20;;
73023;SDS011;61199;47.526;8.538;2023-02-15T13:38:44;25.80;;;15.73;;
73023;SDS011;61199;47.526;8.538;2023-02-15T13:41:27;25.40;;;14.67;;
73023;SDS011;61199;47.526;8.538;2023-02-15T13:52:27;26.20;;;15.70;;
73023;SDS011;61199;47.526;8.538;2023-02-15T13:55:06;34.90;;;17.00;;
73023;SDS011;61199;47.526;8.538;2023-02-15T14:00:40;26.97;;;16.47;;
73023;SDS011;61199;47.526;8.538;2023-02-15T14:06:11;26.87;;;16.47;;
73023;SDS011;61199;47.526;8.538;2023-02-15T14:08:58;30.27;;;18.00;;
73023;SDS011;61199;47.526;8.538;2023-02-15T14:12:04;24.10;;;16.03;;
73023;SDS011;61199;47.526;8.538;2023-02-15T14:17:10;33.47;;;17.37;;
73023;SDS011;61199;47.526;8.538;2023-02-15T14:19:52;25.57;;;16.07;;
73023;SDS011;61199;47.526;8.538;2023-02-15T14:22:28;24.90;;;15.83;;
73023;SDS011;61199;47.526;8.538;2023-02-15T14:30:32;27.47;;;17.10;;
73023;SDS011;61199;47.526;8.538;2023-02-15T14:33:06;27.17;;;15.90;;
73023;SDS011;61199;47.526;8.538;2023-02-15T14:36:00;27.30;;;16.27;;
73023;SDS011;61199;47.526;8.538;2023-02-15T14:38:36;27.17;;;17.10;;
73023;SDS011;61199;47.526;8.538;2023-02-15T14:41:08;25.23;;;16.63;;
73023;SDS011;61199;47.526;8.538;2023-02-15T14:46:53;28.30;;;17.63;;
73023;SDS011;61199;47.526;8.538;2023-02-15T14:49:41;30.57;;;16.80;;
73023;SDS011;61199;47.526;8.538;2023-02-15T14:52:08;27.63;;;17.93;;
73023;SDS011;61199;47.526;8.538;2023-02-15T15:04:34;32.63;;;18.00;;
73023;SDS011;61199;47.526;8.538;2023-02-15T15:09:45;32.13;;;18.70;;
73023;SDS011;61199;47.526;8.538;2023-02-15T15:14:52;33.77;;;19.10;;
73023;SDS011;61199;47.526;8.538;2023-02-15T15:19:59;30.00;;;18.70;;
73023;SDS011;61199;47.526;8.538;2023-02-15T15:22:27;37.80;;;20.47;;
73023;SDS011;61199;47.526;8.538;2023-02-15T15:24:56;39.93;;;19.90;;
73023;SDS011;61199;47.526;8.538;2023-02-15T15:32:47;34.90;;;19.80;;
73023;SDS011;61199;47.526;8.538;2023-02-15T15:35:23;30.50;;;19.20;;
73023;SDS011;61199;47.526;8.538;2023-02-15T15:49:39;31.07;;;18.93;;
73023;SDS011;61199;47.526;8.538;2023-02-15T15:52:16;36.80;;;21.37;;
73023;SDS011;61199;47.526;8.538;2023-02-15T15:54:44;34.23;;;18.77;;
73023;SDS011;61199;47.526;8.538;2023-02-15T15:57:33;32.70;;;19.43;;
73023;SDS011;61199;47.526;8.538;2023-02-15T16:00:04;31.37;;;19.50;;
73023;SDS011;61199;47.526;8.538;2023-02-15T16:02:53;30.60;;;19.70;;
73023;SDS011;61199;47.526;8.538;2023-02-15T16:05:21;37.50;;;21.57;;
73023;SDS011;61199;47.526;8.538;2023-02-15T16:07:48;37.27;;;20.93;;
73023;SDS011;61199;47.526;8.538;2023-02-15T16:10:22;38.83;;;21.67;;
73023;SDS011;61199;47.526;8.538;2023-02-15T16:12:53;36.30;;;19.50;;
73023;SDS011;61199;47.526;8.538;2023-02-15T16:15:43;31.57;;;19.97;;
73023;SDS011;61199;47.526;8.538;2023-02-15T16:18:10;36.17;;;20.63;;
73023;SDS011;61199;47.526;8.538;2023-02-15T16:20:41;34.33;;;20.33;;
73023;SDS011;61199;47.526;8.538;2023-02-15T16:28:38;37.20;;;20.70;;
73023;SDS011;61199;47.526;8.538;2023-02-15T16:31:13;33.83;;;19.70;;
73023;SDS011;61199;47.526;8.538;2023-02-15T16:33:42;38.00;;;21.50;;
73023;SDS011;61199;47.526;8.538;2023-02-15T16:36:11;38.23;;;21.83;;
73023;SDS011;61199;47.526;8.538;2023-02-15T16:41:16;43.00;;;22.00;;
73023;SDS011;61199;47.526;8.538;2023-02-15T16:43:45;37.03;;;20.83;;
73023;SDS011;61199;47.526;8.538;2023-02-15T16:46:16;39.77;;;21.77;;
73023;SDS011;61199;47.526;8.538;2023-02-15T16:48:48;37.10;;;21.37;;
73023;SDS011;61199;47.526;8.538;2023-02-15T16:51:18;41.70;;;23.27;;
73023;SDS011;61199;47.526;8.538;2023-02-15T16:53:48;44.00;;;23.70;;
73023;SDS011;61199;47.526;8.538;2023-02-15T16:56:15;43.77;;;22.50;;
73023;SDS011;61199;47.526;8.538;2023-02-15T16:58:50;41.60;;;21.90;;
73023;SDS011;61199;47.526;8.538;2023-02-15T17:01:19;43.77;;;22.80;;
73023;SDS011;61199;47.526;8.538;2023-02-15T17:03:50;40.67;;;21.07;;
73023;SDS011;61199;47.526;8.538;2023-02-15T17:06:35;40.10;;;21.80;;
73023;SDS011;61199;47.526;8.538;2023-02-15T17:09:03;40.60;;;22.30;;
73023;SDS011;61199;47.526;8.538;2023-02-15T17:11:41;37.53;;;20.63;;
73023;SDS011;61199;47.526;8.538;2023-02-15T17:14:10;39.80;;;20.70;;
73023;SDS011;61199;47.526;8.538;2023-02-15T17:16:59;46.13;;;23.13;;
73023;SDS011;61199;47.526;8.538;2023-02-15T17:19:31;46.60;;;23.27;;
73023;SDS011;61199;47.526;8.538;2023-02-15T17:22:06;39.90;;;22.77;;
73023;SDS011;61199;47.526;8.538;2023-02-15T17:27:10;42.50;;;21.37;;